createdAt,value
2019-04-21T00:01:05.473Z,28.30
2019-04-21T00:03:40.202Z,28.70
2019-04-21T00:06:22.347Z,28.30
2019-04-21T00:09:00.923Z,28.70
2019-04-21T00:11:22.628Z,28.90
2019-04-21T00:13:47.954Z,28.70
2019-04-21T00:16:10.670Z,28.70
2019-04-21T00:19:01.090Z,28.50
2019-04-21T00:21:34.432Z,28.90
2019-04-21T00:24:24.902Z,29.20
2019-04-21T00:27:03.786Z,29.00
2019-04-21T00:29:38.337Z,29.30
2019-04-21T00:32:01.693Z,28.80
2019-04-21T00:34:17.815Z,28.80
2019-04-21T00:36:56.099Z,28.80
2019-04-21T00:42:11.215Z,29.00
2019-04-21T00:44:29.548Z,28.80
2019-04-21T00:47:04.136Z,29.10
2019-04-21T00:49:35.772Z,29.00
2019-04-21T00:52:29.097Z,29.50
2019-04-21T00:55:00.549Z,29.30
2019-04-21T00:57:34.316Z,29.50
2019-04-21T00:59:59.409Z,29.50
2019-04-21T01:02:34.981Z,29.50
2019-04-21T01:05:04.849Z,29.60
2019-04-21T01:07:31.732Z,29.90
2019-04-21T01:09:55.312Z,29.90
2019-04-21T01:12:33.490Z,30.60
2019-04-21T01:15:06.603Z,30.50
2019-04-21T01:17:38.825Z,30.60
2019-04-21T01:19:58.420Z,30.50
2019-04-21T01:22:13.642Z,30.30
2019-04-21T01:24:47.244Z,30.20
2019-04-21T01:27:25.215Z,30.60
2019-04-21T01:30:08.225Z,30.50
2019-04-21T01:32:37.473Z,30.60
2019-04-21T01:35:10.072Z,30.30
2019-04-21T01:37:44.058Z,30.90
2019-04-21T01:40:16.972Z,30.70
2019-04-21T01:42:43.622Z,30.50
2019-04-21T01:45:12.789Z,30.50
2019-04-21T01:47:36.198Z,30.80
2019-04-21T01:49:59.252Z,30.80
2019-04-21T01:52:53.244Z,31.10
2019-04-21T01:55:29.204Z,31.00
2019-04-21T01:58:00.343Z,31.50
2019-04-21T02:00:51.883Z,31.10
2019-04-21T02:06:07.680Z,32.20
2019-04-21T02:08:27.505Z,32.70
2019-04-21T02:11:08.036Z,33.30
2019-04-21T02:13:27.952Z,33.30
2019-04-21T02:18:29.304Z,33.50
2019-04-21T02:20:53.942Z,34.00
2019-04-21T02:23:38.478Z,33.50
2019-04-21T02:26:03.732Z,33.70
2019-04-21T02:28:44.034Z,34.20
2019-04-21T02:33:58.288Z,34.70
2019-04-21T02:36:32.815Z,35.10
2019-04-21T02:41:18.140Z,34.90
2019-04-21T02:43:52.465Z,34.90
2019-04-21T02:46:23.704Z,35.30
2019-04-21T02:48:56.483Z,35.20
2019-04-21T02:51:28.140Z,35.90
2019-04-21T02:54:24.583Z,36.70
2019-04-21T02:56:27.853Z,37.30
2019-04-21T03:01:56.672Z,37.80
2019-04-21T03:07:11.396Z,37.50
2019-04-21T03:09:31.798Z,38.50
2019-04-21T03:14:50.004Z,38.00
2019-04-21T03:17:09.631Z,38.10
2019-04-21T03:19:45.532Z,38.40
2019-04-21T03:22:21.037Z,39.00
2019-04-21T03:24:53.952Z,38.80
2019-04-21T03:32:37.150Z,40.50
2019-04-21T03:37:19.405Z,41.60
2019-04-21T03:39:48.558Z,42.30
2019-04-21T03:42:19.878Z,43.30
2019-04-21T03:44:56.878Z,43.60
2019-04-21T03:47:17.084Z,42.10
2019-04-21T03:49:47.429Z,43.30
2019-04-21T03:58:15.147Z,47.00
2019-04-21T04:00:42.641Z,44.70
2019-04-21T04:05:59.478Z,46.10
2019-04-21T04:11:12.049Z,45.90
2019-04-21T04:13:49.671Z,45.40
2019-04-21T04:16:13.302Z,45.40
2019-04-21T04:18:46.750Z,46.10
2019-04-21T04:21:13.302Z,46.10
2019-04-21T04:23:49.161Z,46.80
2019-04-21T04:28:47.922Z,46.40
2019-04-21T04:33:51.914Z,46.10
2019-04-21T04:36:30.224Z,45.30
2019-04-21T04:41:24.946Z,45.50
2019-04-21T04:43:56.737Z,46.60
2019-04-21T04:46:18.208Z,46.50
2019-04-21T04:48:54.985Z,46.40
2019-04-21T04:51:39.943Z,46.60
2019-04-21T04:53:47.061Z,46.90
2019-04-21T04:56:32.649Z,46.20
2019-04-21T05:01:32.589Z,46.90
2019-04-21T05:04:00.383Z,46.20
2019-04-21T05:16:44.102Z,47.40
2019-04-21T05:21:34.856Z,46.50
2019-04-21T05:24:08.076Z,46.40
2019-04-21T05:26:18.515Z,46.00
2019-04-21T05:28:47.532Z,46.10
2019-04-21T05:31:34.966Z,45.70
2019-04-21T05:34:03.044Z,45.70
2019-04-21T05:36:52.400Z,45.50
2019-04-21T05:39:20.349Z,46.40
2019-04-21T05:41:42.908Z,45.70
2019-04-21T05:44:28.014Z,45.30
2019-04-21T05:47:07.844Z,44.60
2019-04-21T05:49:29.463Z,44.90
2019-04-21T05:51:57.128Z,44.80
2019-04-21T05:54:39.441Z,44.40
2019-04-21T05:57:00.707Z,44.50
2019-04-21T05:59:40.148Z,44.40
2019-04-21T06:02:18.831Z,44.30
2019-04-21T06:05:02.364Z,44.70
2019-04-21T06:07:18.859Z,44.60
2019-04-21T06:09:49.550Z,44.40
2019-04-21T06:12:16.450Z,44.60
2019-04-21T06:14:49.511Z,44.60
2019-04-21T06:17:18.827Z,44.60
2019-04-21T06:19:52.745Z,44.90
2019-04-21T06:22:13.863Z,44.10
2019-04-21T06:25:15.245Z,44.50
2019-04-21T06:27:26.299Z,44.70
2019-04-21T06:29:52.740Z,44.90
2019-04-21T06:32:36.251Z,45.00
2019-04-21T06:35:14.888Z,45.70
2019-04-21T06:37:46.944Z,44.40
2019-04-21T06:40:07.629Z,44.60
2019-04-21T06:42:21.177Z,43.90
2019-04-21T06:44:57.443Z,43.60
2019-04-21T06:47:33.692Z,43.30
2019-04-21T06:49:58.916Z,43.50
2019-04-21T06:55:03.346Z,42.70
2019-04-21T06:59:55.711Z,43.10
2019-04-21T07:05:07.876Z,42.50
2019-04-21T07:08:05.167Z,42.40
2019-04-21T07:10:12.265Z,42.30
2019-04-21T07:12:34.303Z,42.30
2019-04-21T07:15:03.553Z,42.50
2019-04-21T07:17:32.501Z,41.90
2019-04-21T07:20:12.891Z,42.40
2019-04-21T07:22:55.196Z,41.60
2019-04-21T07:25:08.646Z,41.60
2019-04-21T07:27:42.796Z,41.40
2019-04-21T07:30:13.189Z,41.10
2019-04-21T07:32:45.982Z,40.80
2019-04-21T07:35:09.737Z,40.60
2019-04-21T07:40:05.252Z,40.50
2019-04-21T07:42:39.947Z,41.20
2019-04-21T07:45:07.235Z,40.30
2019-04-21T07:48:03.341Z,39.80
2019-04-21T07:50:38.997Z,39.60
2019-04-21T07:53:14.204Z,38.90
2019-04-21T07:58:13.017Z,39.40
2019-04-21T08:03:15.952Z,38.00
2019-04-21T08:05:48.449Z,37.80
2019-04-21T08:08:14.307Z,37.60
2019-04-21T08:10:47.164Z,37.40
2019-04-21T08:13:32.455Z,37.40
2019-04-21T08:16:04.775Z,37.50
2019-04-21T08:18:20.423Z,37.40
2019-04-21T08:20:47.843Z,37.60
2019-04-21T08:23:29.103Z,37.30
2019-04-21T08:25:58.953Z,35.20
2019-04-21T08:28:25.910Z,36.00
2019-04-21T08:30:54.258Z,34.70
2019-04-21T08:33:32.502Z,33.40
2019-04-21T08:38:30.201Z,30.20
2019-04-21T08:41:01.556Z,30.10
2019-04-21T08:43:40.011Z,29.60
2019-04-21T08:46:02.061Z,29.80
2019-04-21T08:48:29.293Z,28.30
2019-04-21T08:51:14.072Z,28.40
2019-04-21T08:53:35.778Z,26.90
2019-04-21T08:56:10.612Z,27.20
2019-04-21T08:58:47.917Z,26.30
2019-04-21T09:01:18.122Z,25.70
2019-04-21T09:04:11.095Z,25.40
2019-04-21T09:06:54.123Z,25.50
2019-04-21T09:09:10.901Z,25.80
2019-04-21T09:11:37.320Z,24.70
2019-04-21T09:14:07.080Z,25.10
2019-04-21T09:16:36.644Z,25.00
2019-04-21T09:19:04.685Z,25.00
2019-04-21T09:21:45.440Z,24.40
2019-04-21T09:24:13.403Z,24.20
2019-04-21T09:26:43.185Z,22.60
2019-04-21T09:29:04.310Z,22.80
2019-04-21T09:31:30.924Z,22.70
2019-04-21T09:34:02.314Z,22.10
2019-04-21T09:36:36.242Z,21.50
2019-04-21T09:39:08.702Z,21.20
2019-04-21T09:41:34.254Z,21.50
2019-04-21T09:44:01.736Z,21.20
2019-04-21T09:46:34.178Z,21.10
2019-04-21T09:49:05.898Z,21.20
2019-04-21T09:51:34.501Z,20.80
2019-04-21T09:54:09.840Z,20.20
2019-04-21T09:56:43.667Z,20.30
2019-04-21T09:59:13.289Z,20.50
2019-04-21T10:01:50.084Z,19.90
2019-04-21T10:04:07.690Z,19.60
2019-04-21T10:06:37.339Z,19.20
2019-04-21T10:09:09.579Z,18.80
2019-04-21T10:11:37.985Z,19.10
2019-04-21T10:14:07.520Z,18.90
2019-04-21T10:16:45.069Z,19.30
2019-04-21T10:19:15.304Z,18.90
2019-04-21T10:21:44.584Z,18.70
2019-04-21T10:24:13.799Z,17.90
2019-04-21T10:26:43.169Z,18.10
2019-04-21T10:29:19.354Z,17.80
2019-04-21T10:31:43.013Z,17.60
2019-04-21T10:34:13.418Z,17.30
2019-04-21T10:36:43.020Z,18.10
2019-04-21T10:39:13.523Z,17.70
2019-04-21T10:41:43.506Z,17.30
2019-04-21T10:44:13.562Z,17.40
2019-04-21T10:46:45.346Z,17.40
2019-04-21T10:49:14.702Z,16.50
2019-04-21T10:51:44.034Z,16.90
2019-04-21T10:54:13.693Z,16.60
2019-04-21T10:56:45.325Z,15.80
2019-04-21T10:59:14.260Z,15.80
2019-04-21T11:01:43.563Z,15.40
2019-04-21T11:04:21.112Z,16.10
2019-04-21T11:06:46.329Z,15.90
2019-04-21T11:09:15.908Z,15.40
2019-04-21T11:11:48.109Z,15.10
2019-04-21T11:14:16.011Z,15.20
2019-04-21T11:16:47.516Z,14.60
2019-04-21T11:19:16.085Z,14.20
2019-04-21T11:21:45.491Z,14.60
2019-04-21T11:24:14.731Z,14.40
2019-04-21T11:26:44.033Z,14.40
2019-04-21T11:29:13.237Z,14.40
2019-04-21T11:31:43.131Z,14.50
2019-04-21T11:34:13.494Z,14.60
2019-04-21T11:36:43.806Z,14.10
2019-04-21T11:39:26.917Z,14.40
2019-04-21T11:41:45.769Z,14.50
2019-04-21T11:44:16.195Z,14.40
2019-04-21T11:46:46.582Z,14.20
2019-04-21T11:49:15.972Z,14.40
2019-04-21T11:51:45.107Z,14.50
2019-04-21T11:54:15.078Z,14.80
2019-04-21T11:56:45.117Z,14.70
2019-04-21T11:59:15.546Z,14.60
2019-04-21T12:01:45.661Z,14.30
2019-04-21T12:04:16.119Z,14.10
2019-04-21T12:06:47.637Z,14.00
2019-04-21T12:09:16.899Z,14.10
2019-04-21T12:11:47.347Z,14.30
2019-04-21T12:14:16.723Z,14.50
2019-04-21T12:16:46.773Z,14.50
2019-04-21T12:19:16.709Z,14.50
2019-04-21T12:21:57.914Z,14.40
2019-04-21T12:24:17.408Z,14.60
2019-04-21T12:26:46.745Z,14.60
2019-04-21T12:29:16.703Z,14.70
2019-04-21T12:32:05.667Z,14.60
2019-04-21T12:34:36.137Z,14.40
2019-04-21T12:37:06.674Z,14.10
2019-04-21T12:39:36.875Z,14.40
2019-04-21T12:42:06.768Z,14.00
2019-04-21T12:44:37.062Z,14.20
2019-04-21T12:47:07.854Z,14.30
2019-04-21T12:49:38.084Z,14.60
2019-04-21T12:52:07.614Z,15.40
2019-04-21T12:54:37.676Z,14.80
2019-04-21T12:57:07.647Z,14.70
2019-04-21T12:59:37.793Z,14.70
2019-04-21T13:02:07.730Z,14.40
2019-04-21T13:04:37.866Z,14.60
2019-04-21T13:07:07.793Z,14.70
2019-04-21T13:09:37.543Z,14.90
2019-04-21T13:12:06.960Z,14.70
2019-04-21T13:14:36.003Z,14.80
2019-04-21T13:17:05.634Z,14.90
2019-04-21T13:19:35.702Z,14.80
2019-04-21T13:22:05.849Z,14.90
2019-04-21T13:24:35.877Z,14.80
2019-04-21T13:27:05.699Z,14.40
2019-04-21T13:29:36.441Z,14.50
2019-04-21T13:32:07.501Z,14.40
2019-04-21T13:34:37.815Z,14.50
2019-04-21T13:37:07.682Z,14.60
2019-04-21T13:40:03.448Z,14.80
2019-04-21T13:42:23.638Z,14.80
2019-04-21T13:44:41.693Z,14.90
2019-04-21T13:47:10.826Z,15.10
2019-04-21T13:49:41.397Z,14.80
2019-04-21T13:52:11.044Z,14.60
2019-04-21T13:54:40.483Z,14.60
2019-04-21T13:57:10.469Z,15.00
2019-04-21T13:59:40.366Z,15.00
2019-04-21T14:02:11.020Z,15.00
2019-04-21T14:04:41.217Z,14.80
2019-04-21T14:07:10.624Z,14.80
2019-04-21T14:09:49.986Z,14.70
2019-04-21T14:12:11.765Z,14.50
2019-04-21T14:14:42.018Z,14.60
2019-04-21T14:17:11.321Z,14.30
2019-04-21T14:19:41.527Z,14.70
2019-04-21T14:22:11.906Z,15.00
2019-04-21T14:24:41.676Z,15.20
2019-04-21T14:27:12.052Z,15.40
2019-04-21T14:29:41.725Z,15.20
2019-04-21T14:32:10.922Z,15.10
2019-04-21T14:34:40.101Z,15.30
2019-04-21T14:37:10.765Z,15.50
2019-04-21T14:39:50.470Z,15.70
2019-04-21T14:42:11.823Z,16.10
2019-04-21T14:44:41.048Z,16.00
2019-04-21T14:47:13.050Z,16.20
2019-04-21T14:49:47.129Z,16.20
2019-04-21T14:52:19.021Z,16.70
2019-04-21T14:54:52.498Z,16.90
2019-04-21T14:57:23.065Z,17.00
2019-04-21T14:59:53.039Z,17.10
2019-04-21T15:02:22.420Z,17.40
2019-04-21T15:04:51.560Z,17.60
2019-04-21T15:07:21.358Z,17.80
2019-04-21T15:10:02.475Z,17.80
2019-04-21T15:12:21.476Z,18.20
2019-04-21T15:14:51.904Z,18.30
2019-04-21T15:17:22.491Z,18.50
2019-04-21T15:19:59.596Z,18.50
2019-04-21T15:22:22.371Z,18.60
2019-04-21T15:24:52.092Z,18.90
2019-04-21T15:27:21.340Z,19.10
2019-04-21T15:29:52.883Z,19.10
2019-04-21T15:32:22.393Z,19.30
2019-04-21T15:34:52.024Z,19.10
2019-04-21T15:37:22.044Z,19.10
2019-04-21T15:39:51.313Z,19.20
2019-04-21T15:42:20.913Z,19.20
2019-04-21T15:44:50.535Z,19.10
2019-04-21T15:47:19.956Z,19.60
2019-04-21T15:50:02.484Z,19.50
2019-04-21T15:52:27.757Z,19.50
2019-04-21T15:54:58.958Z,19.50
2019-04-21T15:57:30.058Z,19.90
2019-04-21T16:00:04.563Z,20.00
2019-04-21T16:02:47.106Z,19.70
2019-04-21T16:05:16.943Z,20.00
2019-04-21T16:07:46.126Z,20.30
2019-04-21T16:10:29.985Z,20.30
2019-04-21T16:12:47.561Z,20.70
2019-04-21T16:15:16.748Z,21.00
2019-04-21T16:17:45.800Z,20.50
2019-04-21T16:20:15.499Z,20.60
2019-04-21T16:22:44.678Z,20.70
2019-04-21T16:25:14.997Z,20.70
2019-04-21T16:27:45.412Z,20.60
2019-04-21T16:30:15.581Z,20.70
2019-04-21T16:32:45.919Z,21.30
2019-04-21T16:35:16.977Z,20.60
2019-04-21T16:37:47.617Z,20.60
2019-04-21T16:40:17.198Z,20.70
2019-04-21T16:42:47.927Z,20.70
2019-04-21T16:45:17.249Z,20.80
2019-04-21T16:47:49.057Z,20.20
2019-04-21T16:50:17.177Z,20.50
2019-04-21T16:52:54.261Z,20.80
2019-04-21T16:55:34.993Z,20.70
2019-04-21T16:58:13.120Z,20.90
2019-04-21T17:00:47.633Z,21.00
2019-04-21T17:03:12.554Z,21.00
2019-04-21T17:05:42.505Z,20.90
2019-04-21T17:08:11.807Z,21.00
2019-04-21T17:10:55.416Z,21.10
2019-04-21T17:13:11.559Z,21.00
2019-04-21T17:15:53.239Z,21.10
2019-04-21T17:18:25.613Z,20.70
2019-04-21T17:20:49.220Z,21.10
2019-04-21T17:23:13.480Z,20.90
2019-04-21T17:25:43.358Z,21.00
2019-04-21T17:28:12.561Z,21.10
2019-04-21T17:30:42.215Z,20.70
2019-04-21T17:33:18.189Z,21.10
2019-04-21T17:35:42.786Z,21.10
2019-04-21T17:38:12.220Z,21.10
2019-04-21T17:40:42.097Z,20.50
2019-04-21T17:43:14.719Z,21.20
2019-04-21T17:45:42.192Z,20.90
2019-04-21T17:48:15.876Z,20.80
2019-04-21T17:50:47.467Z,20.80
2019-04-21T17:53:35.698Z,20.60
2019-04-21T17:56:19.401Z,20.20
2019-04-21T17:58:52.914Z,20.50
2019-04-21T18:01:26.549Z,20.20
2019-04-21T18:03:58.399Z,20.20
2019-04-21T18:06:25.780Z,20.70
2019-04-21T18:08:52.965Z,20.70
2019-04-21T18:11:18.052Z,20.90
2019-04-21T18:13:37.774Z,21.10
2019-04-21T18:16:13.377Z,21.20
2019-04-21T18:18:38.953Z,21.40
2019-04-21T18:21:26.970Z,21.10
2019-04-21T18:24:07.166Z,21.60
2019-04-21T18:26:37.980Z,21.60
2019-04-21T18:29:01.114Z,21.70
2019-04-21T18:31:33.916Z,22.50
2019-04-21T18:34:08.560Z,22.00
2019-04-21T18:36:38.400Z,21.80
2019-04-21T18:39:33.643Z,22.30
2019-04-21T18:42:17.539Z,22.10
2019-04-21T18:44:58.267Z,22.30
2019-04-21T18:47:26.747Z,22.50
2019-04-21T18:49:44.151Z,22.50
2019-04-21T18:52:26.749Z,22.50
2019-04-21T18:55:01.471Z,22.40
2019-04-21T18:57:27.396Z,22.80
2019-04-21T18:59:51.207Z,23.00
2019-04-21T19:02:22.426Z,23.10
2019-04-21T19:04:54.462Z,22.70
2019-04-21T19:07:37.666Z,23.20
2019-04-21T19:13:09.156Z,23.30
2019-04-21T19:15:13.418Z,23.60
2019-04-21T19:18:16.487Z,24.40
2019-04-21T19:20:20.961Z,24.80
2019-04-21T19:22:41.995Z,25.20
2019-04-21T19:25:17.987Z,24.90
2019-04-21T19:27:53.172Z,25.10
2019-04-21T19:32:45.465Z,25.50
2019-04-21T19:35:02.367Z,26.60
2019-04-21T19:37:42.292Z,26.70
2019-04-21T19:40:15.718Z,27.00
2019-04-21T19:42:45.597Z,27.20
2019-04-21T19:45:25.203Z,27.40
2019-04-21T19:47:53.214Z,27.30
2019-04-21T19:50:30.999Z,27.40
2019-04-21T19:52:49.607Z,28.10
2019-04-21T19:55:10.111Z,27.80
2019-04-21T19:57:39.328Z,27.90
2019-04-21T20:00:11.515Z,28.10
2019-04-21T20:02:42.709Z,28.60
2019-04-21T20:05:20.207Z,28.70
2019-04-21T20:07:58.392Z,28.90
2019-04-21T20:10:33.457Z,29.20
2019-04-21T20:13:07.383Z,29.40
2019-04-21T20:15:41.532Z,29.50
2019-04-21T20:18:02.334Z,30.30
2019-04-21T20:20:19.525Z,30.00
2019-04-21T20:22:51.953Z,30.40
2019-04-21T20:25:23.140Z,31.20
2019-04-21T20:28:00.758Z,30.80
2019-04-21T20:30:42.609Z,31.20
2019-04-21T20:33:38.386Z,31.30
2019-04-21T20:38:06.230Z,32.00
2019-04-21T20:40:36.332Z,32.50
2019-04-21T20:43:16.518Z,32.80
2019-04-21T20:45:46.068Z,33.10
2019-04-21T20:48:07.184Z,33.50
2019-04-21T20:50:44.731Z,33.60
2019-04-21T20:53:17.585Z,34.20
2019-04-21T20:55:48.905Z,34.60
2019-04-21T20:58:15.519Z,34.30
2019-04-21T21:00:56.169Z,35.90
2019-04-21T21:03:24.847Z,35.80
2019-04-21T21:05:47.999Z,36.10
2019-04-21T21:08:35.750Z,36.30
2019-04-21T21:10:53.003Z,36.70
2019-04-21T21:16:03.804Z,37.10
2019-04-21T21:20:59.003Z,36.70
2019-04-21T21:23:26.100Z,37.10
2019-04-21T21:25:56.204Z,37.30
2019-04-21T21:28:26.649Z,37.10
2019-04-21T21:30:59.398Z,36.60
2019-04-21T21:33:25.689Z,37.00
2019-04-21T21:36:06.990Z,36.20
2019-04-21T21:38:31.447Z,36.20
2019-04-21T21:40:58.730Z,36.70
2019-04-21T21:43:19.943Z,36.20
2019-04-21T21:45:54.967Z,36.40
2019-04-21T21:48:31.801Z,37.10
2019-04-21T21:51:02.043Z,36.60
2019-04-21T21:53:23.762Z,36.60
2019-04-21T21:55:50.996Z,36.70
2019-04-21T21:58:29.804Z,37.10
2019-04-21T22:00:56.921Z,36.90
2019-04-21T22:03:28.359Z,36.90
2019-04-21T22:06:03.602Z,36.90
2019-04-21T22:08:24.755Z,37.80
2019-04-21T22:10:55.010Z,37.50
2019-04-21T22:13:35.503Z,37.70
2019-04-21T22:15:59.875Z,37.90
2019-04-21T22:18:43.619Z,38.80
2019-04-21T22:21:10.032Z,38.30
2019-04-21T22:23:39.930Z,38.80
2019-04-21T22:25:57.978Z,39.00
2019-04-21T22:28:27.540Z,39.20
2019-04-21T22:30:56.999Z,40.40
2019-04-21T22:33:27.711Z,40.50
2019-04-21T22:36:05.703Z,40.20
2019-04-21T22:38:40.817Z,40.00
2019-04-21T22:41:10.663Z,40.10
2019-04-21T22:43:36.391Z,39.70
2019-04-21T22:46:01.095Z,39.00
2019-04-21T22:48:30.655Z,39.00
2019-04-21T22:51:00.565Z,39.80
2019-04-21T22:53:36.211Z,39.30
2019-04-21T22:56:10.173Z,39.70
2019-04-21T22:58:36.991Z,39.20
2019-04-21T23:01:04.228Z,39.20
2019-04-21T23:03:33.994Z,38.80
2019-04-21T23:06:09.757Z,38.50
2019-04-21T23:08:38.460Z,39.70
2019-04-21T23:11:10.027Z,39.40
2019-04-21T23:13:36.350Z,38.90
2019-04-21T23:16:07.579Z,38.90
2019-04-21T23:18:50.457Z,38.70
2019-04-21T23:21:20.907Z,38.70
2019-04-21T23:23:56.001Z,39.20
2019-04-21T23:26:29.737Z,38.60
2019-04-21T23:28:56.813Z,38.70
2019-04-21T23:31:30.791Z,38.80
2019-04-21T23:33:42.005Z,38.70
2019-04-21T23:36:17.211Z,38.40
2019-04-21T23:38:44.963Z,38.60
2019-04-21T23:41:13.106Z,39.00
2019-04-21T23:43:44.743Z,39.70
2019-04-21T23:46:22.062Z,39.80
2019-04-21T23:49:01.783Z,39.20
2019-04-21T23:51:27.458Z,39.20
2019-04-21T23:53:45.254Z,39.60
2019-04-21T23:56:23.166Z,39.00
2019-04-21T23:58:52.978Z,39.70
